06/18 04:07 更新

1,500ftに雲が少し
3,000ftに雲が散在
4,000ftに雲が多い

地上風: 方向不定 1kt

上空風(熊谷 04:30更新)
13,000ft: 320° 4kt
10,000ft: 340° 12kt
 7,000ft: 290° 8kt
 3,000ft: 50° 6kt

地上: 18℃
上空: 未計測℃

日没: 18:59

実況天気図


予想天気図


RJTJ 171907Z VRB01KT 9999 FEW015 SCT030 BKN040 18/16 Q1006 RMK 1CU015 3CU030 5SC040 A2971=

GPV気象予報
気象庁
日本気象協会

玉淀ダム放流量(1,000m3/sを超えた7時間後にDZ冠水)
太郎衛門橋テレメータ水位(11mでDZ冠水)

skydive.jp